Aviation Digital Data Service (ADDS)

Output produced by METARs form (1016 UTC 02 August 2015)
found at http://aviationweather.gov/adds/metars/
 
KCON 020901Z 0209/0306 00000KT P6SM SKC 
     FM021200 28005KT P6SM SKC 
     FM021800 23008KT P6SM SCT060 SCT100 
     FM030000 17003KT P6SM SCT060